sensor_id;sensor_type;location;lat;lon;timestamp;pressure;altitude;pressure_sealevel;temperature;humidity
56928;BME280;60850;52.502;13.426;2022-10-16T00:00:48;100746.38;;;14.78;100.00
56928;BME280;60850;52.502;13.426;2022-10-16T00:03:32;100738.31;;;14.78;100.00
56928;BME280;60850;52.502;13.426;2022-10-16T00:05:59;100744.50;;;14.80;100.00
56928;BME280;60850;52.502;13.426;2022-10-16T00:08:27;100747.03;;;14.83;100.00
56928;BME280;60850;52.502;13.426;2022-10-16T00:10:59;100750.50;;;14.87;100.00
56928;BME280;60850;52.502;13.426;2022-10-16T00:13:26;100752.00;;;14.93;100.00
56928;BME280;60850;52.502;13.426;2022-10-16T00:15:54;100759.00;;;14.97;100.00
56928;BME280;60850;52.502;13.426;2022-10-16T00:18:21;100761.59;;;14.98;100.00
56928;BME280;60850;52.502;13.426;2022-10-16T00:20:50;100747.97;;;15.03;100.00
56928;BME280;60850;52.502;13.426;2022-10-16T00:23:17;100758.66;;;15.04;100.00
56928;BME280;60850;52.502;13.426;2022-10-16T00:25:44;100763.06;;;15.05;100.00
56928;BME280;60850;52.502;13.426;2022-10-16T00:28:11;100763.00;;;15.07;100.00
56928;BME280;60850;52.502;13.426;2022-10-16T00:30:38;100767.38;;;15.09;100.00
56928;BME280;60850;52.502;13.426;2022-10-16T00:33:05;100768.97;;;15.14;100.00
56928;BME280;60850;52.502;13.426;2022-10-16T00:35:32;100777.84;;;15.16;100.00
56928;BME280;60850;52.502;13.426;2022-10-16T00:38:01;100783.22;;;15.16;100.00
56928;BME280;60850;52.502;13.426;2022-10-16T00:40:28;100772.47;;;15.16;100.00
56928;BME280;60850;52.502;13.426;2022-10-16T00:42:55;100770.66;;;15.16;100.00
56928;BME280;60850;52.502;13.426;2022-10-16T00:45:22;100772.47;;;15.16;100.00
56928;BME280;60850;52.502;13.426;2022-10-16T00:47:50;100763.53;;;15.15;100.00
56928;BME280;60850;52.502;13.426;2022-10-16T00:50:25;100767.03;;;15.17;100.00
56928;BME280;60850;52.502;13.426;2022-10-16T00:52:53;100769.72;;;15.17;100.00
56928;BME280;60850;52.502;13.426;2022-10-16T00:55:23;100774.06;;;15.20;100.00
56928;BME280;60850;52.502;13.426;2022-10-16T00:57:51;100775.09;;;15.17;100.00
56928;BME280;60850;52.502;13.426;2022-10-16T01:00:20;100781.59;;;15.11;100.00
56928;BME280;60850;52.502;13.426;2022-10-16T01:02:52;100781.00;;;15.05;100.00
56928;BME280;60850;52.502;13.426;2022-10-16T01:05:21;100782.06;;;15.01;100.00
56928;BME280;60850;52.502;13.426;2022-10-16T01:07:56;100789.13;;;15.03;100.00
56928;BME280;60850;52.502;13.426;2022-10-16T01:10:31;100784.69;;;15.02;100.00
56928;BME280;60850;52.502;13.426;2022-10-16T01:13:03;100783.75;;;15.03;100.00
56928;BME280;60850;52.502;13.426;2022-10-16T01:15:35;100783.69;;;15.05;100.00
56928;BME280;60850;52.502;13.426;2022-10-16T01:18:07;100774.84;;;15.03;100.00
56928;BME280;60850;52.502;13.426;2022-10-16T01:20:37;100785.91;;;14.95;100.00
56928;BME280;60850;52.502;13.426;2022-10-16T01:23:15;100787.78;;;14.93;100.00
56928;BME280;60850;52.502;13.426;2022-10-16T01:25:59;100788.97;;;14.86;100.00
56928;BME280;60850;52.502;13.426;2022-10-16T01:28:35;100794.50;;;14.83;100.00
56928;BME280;60850;52.502;13.426;2022-10-16T01:31:04;100799.72;;;14.86;100.00
56928;BME280;60850;52.502;13.426;2022-10-16T01:33:35;100799.06;;;14.81;100.00
56928;BME280;60850;52.502;13.426;2022-10-16T01:36:10;100800.03;;;14.78;100.00
56928;BME280;60850;52.502;13.426;2022-10-16T01:38:39;100801.84;;;14.78;100.00
56928;BME280;60850;52.502;13.426;2022-10-16T01:41:12;100810.84;;;14.77;100.00
56928;BME280;60850;52.502;13.426;2022-10-16T01:43:46;100812.53;;;14.79;100.00
56928;BME280;60850;52.502;13.426;2022-10-16T01:46:17;100807.16;;;14.79;100.00
56928;BME280;60850;52.502;13.426;2022-10-16T01:48:45;100812.66;;;14.76;100.00
56928;BME280;60850;52.502;13.426;2022-10-16T01:51:14;100798.44;;;14.74;100.00
56928;BME280;60850;52.502;13.426;2022-10-16T01:53:46;100810.13;;;14.73;100.00
56928;BME280;60850;52.502;13.426;2022-10-16T01:56:15;100815.34;;;14.76;100.00
56928;BME280;60850;52.502;13.426;2022-10-16T01:58:48;100816.16;;;14.78;100.00
56928;BME280;60850;52.502;13.426;2022-10-16T02:01:19;100815.81;;;14.86;100.00
56928;BME280;60850;52.502;13.426;2022-10-16T02:03:50;100818.38;;;14.89;100.00
56928;BME280;60850;52.502;13.426;2022-10-16T02:06:19;100819.19;;;14.91;100.00
56928;BME280;60850;52.502;13.426;2022-10-16T02:08:47;100824.22;;;14.99;100.00
56928;BME280;60850;52.502;13.426;2022-10-16T02:11:14;100820.47;;;15.03;100.00
56928;BME280;60850;52.502;13.426;2022-10-16T02:13:46;100827.25;;;15.11;100.00
56928;BME280;60850;52.502;13.426;2022-10-16T02:16:14;100833.41;;;15.14;100.00
56928;BME280;60850;52.502;13.426;2022-10-16T02:18:42;100839.66;;;15.14;100.00
56928;BME280;60850;52.502;13.426;2022-10-16T02:21:14;100844.91;;;15.17;100.00
56928;BME280;60850;52.502;13.426;2022-10-16T02:23:51;100843.16;;;15.16;100.00
56928;BME280;60850;52.502;13.426;2022-10-16T02:26:25;100851.16;;;15.18;100.00
56928;BME280;60850;52.502;13.426;2022-10-16T02:28:59;100841.97;;;15.23;100.00
56928;BME280;60850;52.502;13.426;2022-10-16T02:31:33;100840.00;;;15.27;100.00
56928;BME280;60850;52.502;13.426;2022-10-16T02:34:03;100838.19;;;15.27;100.00
56928;BME280;60850;52.502;13.426;2022-10-16T02:36:32;100837.25;;;15.28;100.00
56928;BME280;60850;52.502;13.426;2022-10-16T02:39:01;100835.50;;;15.27;100.00
56928;BME280;60850;52.502;13.426;2022-10-16T02:41:30;100847.09;;;15.28;100.00
56928;BME280;60850;52.502;13.426;2022-10-16T02:43:58;100847.97;;;15.28;100.00
56928;BME280;60850;52.502;13.426;2022-10-16T02:46:25;100840.78;;;15.29;100.00
56928;BME280;60850;52.502;13.426;2022-10-16T02:48:52;100845.19;;;15.31;100.00
56928;BME280;60850;52.502;13.426;2022-10-16T02:51:19;100851.50;;;15.30;100.00
56928;BME280;60850;52.502;13.426;2022-10-16T02:53:45;100847.88;;;15.31;100.00
56928;BME280;60850;52.502;13.426;2022-10-16T02:56:12;100843.22;;;15.35;100.00
56928;BME280;60850;52.502;13.426;2022-10-16T02:58:39;100853.16;;;15.33;100.00
56928;BME280;60850;52.502;13.426;2022-10-16T03:01:08;100856.88;;;15.30;100.00
56928;BME280;60850;52.502;13.426;2022-10-16T03:03:34;100853.34;;;15.28;100.00
56928;BME280;60850;52.502;13.426;2022-10-16T03:06:01;100849.19;;;15.21;100.00
56928;BME280;60850;52.502;13.426;2022-10-16T03:08:28;100853.03;;;15.16;100.00
56928;BME280;60850;52.502;13.426;2022-10-16T03:10:55;100847.94;;;15.09;100.00
56928;BME280;60850;52.502;13.426;2022-10-16T03:13:22;100853.50;;;15.05;100.00
56928;BME280;60850;52.502;13.426;2022-10-16T03:15:49;100866.13;;;15.03;100.00
56928;BME280;60850;52.502;13.426;2022-10-16T03:18:17;100865.28;;;15.01;100.00
56928;BME280;60850;52.502;13.426;2022-10-16T03:20:44;100869.78;;;15.00;100.00
56928;BME280;60850;52.502;13.426;2022-10-16T03:23:11;100874.44;;;14.97;100.00
56928;BME280;60850;52.502;13.426;2022-10-16T03:25:38;100871.84;;;14.94;100.00
56928;BME280;60850;52.502;13.426;2022-10-16T03:28:05;100869.25;;;14.92;100.00
56928;BME280;60850;52.502;13.426;2022-10-16T03:30:32;100874.75;;;14.89;100.00
56928;BME280;60850;52.502;13.426;2022-10-16T03:32:59;100878.44;;;14.87;100.00
56928;BME280;60850;52.502;13.426;2022-10-16T03:35:27;100883.00;;;14.84;100.00
56928;BME280;60850;52.502;13.426;2022-10-16T03:37:55;100886.63;;;14.83;100.00
56928;BME280;60850;52.502;13.426;2022-10-16T03:40:22;100889.38;;;14.82;100.00
56928;BME280;60850;52.502;13.426;2022-10-16T03:42:49;100900.28;;;14.77;100.00
56928;BME280;60850;52.502;13.426;2022-10-16T03:45:16;100896.81;;;14.75;100.00
56928;BME280;60850;52.502;13.426;2022-10-16T03:47:43;100910.28;;;14.74;100.00
56928;BME280;60850;52.502;13.426;2022-10-16T03:50:10;100911.28;;;14.71;100.00
56928;BME280;60850;52.502;13.426;2022-10-16T03:52:38;100916.78;;;14.68;100.00
56928;BME280;60850;52.502;13.426;2022-10-16T03:55:06;100921.34;;;14.66;100.00
56928;BME280;60850;52.502;13.426;2022-10-16T03:57:33;100918.75;;;14.63;100.00
56928;BME280;60850;52.502;13.426;2022-10-16T04:00:00;100925.16;;;14.61;100.00
56928;BME280;60850;52.502;13.426;2022-10-16T04:02:27;100928.81;;;14.58;100.00
56928;BME280;60850;52.502;13.426;2022-10-16T04:04:54;100923.44;;;14.58;100.00
56928;BME280;60850;52.502;13.426;2022-10-16T04:07:20;100928.81;;;14.58;100.00
56928;BME280;60850;52.502;13.426;2022-10-16T04:09:49;100929.66;;;14.59;100.00
56928;BME280;60850;52.502;13.426;2022-10-16T04:12:17;100937.69;;;14.60;100.00
56928;BME280;60850;52.502;13.426;2022-10-16T04:14:44;100937.69;;;14.60;100.00
56928;BME280;60850;52.502;13.426;2022-10-16T04:17:11;100935.88;;;14.61;100.00
56928;BME280;60850;52.502;13.426;2022-10-16T04:19:38;100930.56;;;14.59;100.00
56928;BME280;60850;52.502;13.426;2022-10-16T04:22:04;100940.38;;;14.60;100.00
56928;BME280;60850;52.502;13.426;2022-10-16T04:24:31;100933.13;;;14.62;100.00
56928;BME280;60850;52.502;13.426;2022-10-16T04:27:00;100935.94;;;14.59;100.00
56928;BME280;60850;52.502;13.426;2022-10-16T04:29:27;100938.63;;;14.59;100.00
56928;BME280;60850;52.502;13.426;2022-10-16T04:31:53;100929.81;;;14.55;100.00
56928;BME280;60850;52.502;13.426;2022-10-16T04:34:21;100921.84;;;14.54;100.00
56928;BME280;60850;52.502;13.426;2022-10-16T04:36:48;100923.50;;;14.56;100.00
56928;BME280;60850;52.502;13.426;2022-10-16T04:39:15;100919.31;;;14.49;100.00
56928;BME280;60850;52.502;13.426;2022-10-16T04:41:42;100913.16;;;14.47;100.00
56928;BME280;60850;52.502;13.426;2022-10-16T04:44:10;100911.34;;;14.48;100.00
56928;BME280;60850;52.502;13.426;2022-10-16T04:46:37;100917.72;;;14.44;100.00
56928;BME280;60850;52.502;13.426;2022-10-16T04:49:04;100907.13;;;14.41;100.00
56928;BME280;60850;52.502;13.426;2022-10-16T04:51:31;100917.91;;;14.39;100.00
56928;BME280;60850;52.502;13.426;2022-10-16T04:53:58;100922.50;;;14.36;100.00
56928;BME280;60850;52.502;13.426;2022-10-16T04:56:25;100920.84;;;14.33;100.00
56928;BME280;60850;52.502;13.426;2022-10-16T04:58:52;100924.78;;;14.23;100.00
56928;BME280;60850;52.502;13.426;2022-10-16T05:01:20;100919.56;;;14.20;100.00
56928;BME280;60850;52.502;13.426;2022-10-16T05:03:47;100937.56;;;14.16;100.00
56928;BME280;60850;52.502;13.426;2022-10-16T05:06:14;100944.78;;;14.14;100.00
56928;BME280;60850;52.502;13.426;2022-10-16T05:08:41;100944.91;;;14.11;100.00
56928;BME280;60850;52.502;13.426;2022-10-16T05:11:07;100952.13;;;14.09;100.00
56928;BME280;60850;52.502;13.426;2022-10-16T05:13:34;100961.06;;;14.10;100.00
56928;BME280;60850;52.502;13.426;2022-10-16T05:16:01;100963.69;;;14.11;100.00
56928;BME280;60850;52.502;13.426;2022-10-16T05:18:29;100966.38;;;14.11;100.00
56928;BME280;60850;52.502;13.426;2022-10-16T05:20:56;100961.06;;;14.10;100.00
56928;BME280;60850;52.502;13.426;2022-10-16T05:23:23;100956.69;;;14.07;100.00
56928;BME280;60850;52.502;13.426;2022-10-16T05:25:53;100967.53;;;14.04;100.00
56928;BME280;60850;52.502;13.426;2022-10-16T05:28:21;100963.91;;;14.05;100.00
56928;BME280;60850;52.502;13.426;2022-10-16T05:30:48;100961.22;;;14.05;100.00
56928;BME280;60850;52.502;13.426;2022-10-16T05:33:15;100951.53;;;14.01;100.00
56928;BME280;60850;52.502;13.426;2022-10-16T05:35:43;100963.84;;;14.07;100.00
56928;BME280;60850;52.502;13.426;2022-10-16T05:38:10;100954.94;;;14.06;100.00
56928;BME280;60850;52.502;13.426;2022-10-16T05:40:37;100956.09;;;13.99;100.00
56928;BME280;60850;52.502;13.426;2022-10-16T05:43:04;100976.72;;;13.97;100.00
56928;BME280;60850;52.502;13.426;2022-10-16T05:45:31;100977.47;;;14.00;100.00
56928;BME280;60850;52.502;13.426;2022-10-16T05:47:58;100976.44;;;14.05;100.00
56928;BME280;60850;52.502;13.426;2022-10-16T05:50:25;100980.59;;;14.13;100.00
56928;BME280;60850;52.502;13.426;2022-10-16T05:52:54;100984.66;;;14.23;100.00
56928;BME280;60850;52.502;13.426;2022-10-16T05:55:20;100979.13;;;14.28;100.00
56928;BME280;60850;52.502;13.426;2022-10-16T05:57:47;100968.09;;;14.36;100.00
56928;BME280;60850;52.502;13.426;2022-10-16T06:00:15;100976.66;;;14.47;100.00
56928;BME280;60850;52.502;13.426;2022-10-16T06:02:42;100975.81;;;14.45;100.00
56928;BME280;60850;52.502;13.426;2022-10-16T06:05:08;100980.41;;;14.41;100.00
56928;BME280;60850;52.502;13.426;2022-10-16T06:07:35;100977.91;;;14.37;100.00
56928;BME280;60850;52.502;13.426;2022-10-16T06:10:05;100973.38;;;14.39;100.00
56928;BME280;60850;52.502;13.426;2022-10-16T06:12:32;100985.72;;;14.43;100.00
56928;BME280;60850;52.502;13.426;2022-10-16T06:14:59;100992.75;;;14.47;100.00
56928;BME280;60850;52.502;13.426;2022-10-16T06:17:25;100989.00;;;14.51;100.00
56928;BME280;60850;52.502;13.426;2022-10-16T06:19:52;100990.88;;;14.49;100.00
56928;BME280;60850;52.502;13.426;2022-10-16T06:22:19;100997.75;;;14.56;100.00
56928;BME280;60850;52.502;13.426;2022-10-16T06:24:46;101001.00;;;14.64;100.00
56928;BME280;60850;52.502;13.426;2022-10-16T06:27:16;100988.16;;;14.72;100.00
56928;BME280;60850;52.502;13.426;2022-10-16T06:29:42;100984.38;;;14.78;100.00
56928;BME280;60850;52.502;13.426;2022-10-16T06:32:10;100992.25;;;14.82;100.00
56928;BME280;60850;52.502;13.426;2022-10-16T06:34:37;100994.00;;;14.83;100.00
56928;BME280;60850;52.502;13.426;2022-10-16T06:37:05;101004.31;;;14.94;100.00
56928;BME280;60850;52.502;13.426;2022-10-16T06:39:32;101012.06;;;15.02;100.00
56928;BME280;60850;52.502;13.426;2022-10-16T06:41:59;101016.28;;;15.07;100.00
56928;BME280;60850;52.502;13.426;2022-10-16T06:44:27;101021.47;;;15.12;100.00
56928;BME280;60850;52.502;13.426;2022-10-16T06:46:54;101024.09;;;15.14;100.00
56928;BME280;60850;52.502;13.426;2022-10-16T06:49:21;101030.16;;;15.19;100.00
56928;BME280;60850;52.502;13.426;2022-10-16T06:51:48;101034.59;;;15.20;100.00
56928;BME280;60850;52.502;13.426;2022-10-16T06:54:15;101025.53;;;15.22;100.00
56928;BME280;60850;52.502;13.426;2022-10-16T06:56:43;101022.97;;;15.19;100.00
56928;BME280;60850;52.502;13.426;2022-10-16T06:59:10;101030.63;;;15.28;100.00
56928;BME280;60850;52.502;13.426;2022-10-16T07:01:38;101037.50;;;15.35;100.00
56928;BME280;60850;52.502;13.426;2022-10-16T07:04:05;101032.75;;;15.42;100.00
56928;BME280;60850;52.502;13.426;2022-10-16T07:06:33;101036.59;;;15.57;100.00
56928;BME280;60850;52.502;13.426;2022-10-16T07:09:03;101025.09;;;15.75;100.00
56928;BME280;60850;52.502;13.426;2022-10-16T07:11:31;101041.94;;;16.01;100.00
56928;BME280;60850;52.502;13.426;2022-10-16T07:13:58;101048.41;;;16.36;100.00
56928;BME280;60850;52.502;13.426;2022-10-16T07:16:27;101060.66;;;16.62;100.00
56928;BME280;60850;52.502;13.426;2022-10-16T07:18:55;101052.84;;;16.76;100.00
56928;BME280;60850;52.502;13.426;2022-10-16T07:21:26;101055.47;;;16.78;100.00
56928;BME280;60850;52.502;13.426;2022-10-16T07:23:55;101051.00;;;16.77;100.00
56928;BME280;60850;52.502;13.426;2022-10-16T07:26:23;101047.31;;;16.79;100.00
56928;BME280;60850;52.502;13.426;2022-10-16T07:28:50;101058.22;;;16.95;100.00
56928;BME280;60850;52.502;13.426;2022-10-16T07:31:18;101051.53;;;17.03;100.00
56928;BME280;60850;52.502;13.426;2022-10-16T07:33:47;101060.75;;;17.17;100.00
56928;BME280;60850;52.502;13.426;2022-10-16T07:36:17;101044.94;;;17.28;100.00
56928;BME280;60850;52.502;13.426;2022-10-16T07:38:45;101032.91;;;17.35;100.00
56928;BME280;60850;52.502;13.426;2022-10-16T07:41:15;101045.06;;;17.44;100.00
56928;BME280;60850;52.502;13.426;2022-10-16T07:43:47;101049.56;;;17.43;100.00
56928;BME280;60850;52.502;13.426;2022-10-16T07:46:18;101067.13;;;17.33;100.00
56928;BME280;60850;52.502;13.426;2022-10-16T07:48:46;101067.94;;;17.35;100.00
56928;BME280;60850;52.502;13.426;2022-10-16T07:51:17;101053.03;;;17.28;100.00
56928;BME280;60850;52.502;13.426;2022-10-16T07:53:45;101048.06;;;17.19;100.00
56928;BME280;60850;52.502;13.426;2022-10-16T07:56:12;101050.19;;;17.12;100.00
56928;BME280;60850;52.502;13.426;2022-10-16T07:58:39;101061.72;;;17.16;100.00
56928;BME280;60850;52.502;13.426;2022-10-16T08:01:09;101056.31;;;17.16;100.00
56928;BME280;60850;52.502;13.426;2022-10-16T08:03:36;101062.41;;;17.19;100.00
56928;BME280;60850;52.502;13.426;2022-10-16T08:06:04;101066.00;;;17.20;100.00
56928;BME280;60850;52.502;13.426;2022-10-16T08:08:33;101089.81;;;17.29;100.00
56928;BME280;60850;52.502;13.426;2022-10-16T08:10:59;101085.56;;;17.42;100.00
56928;BME280;60850;52.502;13.426;2022-10-16T08:13:29;101094.28;;;17.47;100.00
56928;BME280;60850;52.502;13.426;2022-10-16T08:15:56;101099.63;;;17.49;100.00
56928;BME280;60850;52.502;13.426;2022-10-16T08:18:23;101099.53;;;17.50;100.00
56928;BME280;60850;52.502;13.426;2022-10-16T08:20:55;101092.09;;;17.55;100.00
56928;BME280;60850;52.502;13.426;2022-10-16T08:23:23;101082.59;;;17.66;100.00
56928;BME280;60850;52.502;13.426;2022-10-16T08:25:53;101079.97;;;17.83;100.00
56928;BME280;60850;52.502;13.426;2022-10-16T08:28:20;101086.94;;;18.04;100.00
56928;BME280;60850;52.502;13.426;2022-10-16T08:30:47;101083.44;;;18.20;100.00
56928;BME280;60850;52.502;13.426;2022-10-16T08:33:14;101093.72;;;18.29;100.00
56928;BME280;60850;52.502;13.426;2022-10-16T08:35:41;101097.06;;;18.34;100.00
56928;BME280;60850;52.502;13.426;2022-10-16T08:38:08;101102.28;;;18.37;100.00
56928;BME280;60850;52.502;13.426;2022-10-16T08:40:37;101094.66;;;18.45;100.00
56928;BME280;60850;52.502;13.426;2022-10-16T08:43:21;101090.53;;;18.55;100.00
56928;BME280;60850;52.502;13.426;2022-10-16T08:46:15;101095.59;;;18.61;100.00
56928;BME280;60850;52.502;13.426;2022-10-16T08:48:47;101084.84;;;18.60;100.00
56928;BME280;60850;52.502;13.426;2022-10-16T08:51:20;101085.25;;;18.52;100.00
56928;BME280;60850;52.502;13.426;2022-10-16T08:53:52;101090.94;;;18.48;100.00
56928;BME280;60850;52.502;13.426;2022-10-16T08:56:21;101095.78;;;18.41;100.00
56928;BME280;60850;52.502;13.426;2022-10-16T08:58:49;101100.56;;;18.36;100.00
56928;BME280;60850;52.502;13.426;2022-10-16T09:01:18;101097.63;;;18.23;100.00
56928;BME280;60850;52.502;13.426;2022-10-16T09:03:54;101106.91;;;18.18;100.00
56928;BME280;60850;52.502;13.426;2022-10-16T09:06:33;101117.69;;;18.18;100.00
56928;BME280;60850;52.502;13.426;2022-10-16T09:09:23;101119.75;;;18.47;100.00
56928;BME280;60850;52.502;13.426;2022-10-16T09:12:01;101115.34;;;18.95;100.00
56928;BME280;60850;52.502;13.426;2022-10-16T09:14:49;101118.28;;;19.39;100.00
56928;BME280;60850;52.502;13.426;2022-10-16T09:17:30;101124.38;;;19.59;100.00
56928;BME280;60850;52.502;13.426;2022-10-16T09:20:12;101131.47;;;19.61;100.00
56928;BME280;60850;52.502;13.426;2022-10-16T09:22:40;101129.91;;;19.57;100.00
56928;BME280;60850;52.502;13.426;2022-10-16T09:25:11;101124.38;;;19.59;100.00
56928;BME280;60850;52.502;13.426;2022-10-16T09:27:39;101128.31;;;19.69;100.00
56928;BME280;60850;52.502;13.426;2022-10-16T09:30:13;101124.09;;;19.95;100.00
56928;BME280;60850;52.502;13.426;2022-10-16T09:32:41;101122.81;;;20.16;100.00
56928;BME280;60850;52.502;13.426;2022-10-16T09:35:14;101125.22;;;20.21;100.00
56928;BME280;60850;52.502;13.426;2022-10-16T09:37:42;101122.31;;;20.10;100.00
56928;BME280;60850;52.502;13.426;2022-10-16T09:40:13;101133.59;;;20.02;100.00
56928;BME280;60850;52.502;13.426;2022-10-16T09:42:40;101131.25;;;19.96;100.00
56928;BME280;60850;52.502;13.426;2022-10-16T09:45:21;101152.44;;;20.03;100.00
56928;BME280;60850;52.502;13.426;2022-10-16T09:47:49;101141.31;;;20.08;100.00
56928;BME280;60850;52.502;13.426;2022-10-16T09:50:22;101140.91;;;20.00;100.00
56928;BME280;60850;52.502;13.426;2022-10-16T09:53:03;101151.31;;;19.92;100.00
56928;BME280;60850;52.502;13.426;2022-10-16T09:55:30;101149.69;;;19.89;100.00
56928;BME280;60850;52.502;13.426;2022-10-16T09:57:57;101156.50;;;19.81;100.00
56928;BME280;60850;52.502;13.426;2022-10-16T10:00:25;101164.78;;;19.78;100.00
56928;BME280;60850;52.502;13.426;2022-10-16T10:02:53;101158.69;;;19.74;100.00
56928;BME280;60850;52.502;13.426;2022-10-16T10:05:22;101157.97;;;19.70;100.00
56928;BME280;60850;52.502;13.426;2022-10-16T10:07:56;101153.53;;;19.69;100.00
56928;BME280;60850;52.502;13.426;2022-10-16T10:10:26;101160.34;;;19.61;100.00
56928;BME280;60850;52.502;13.426;2022-10-16T10:12:53;101170.91;;;19.81;100.00
56928;BME280;60850;52.502;13.426;2022-10-16T10:15:21;101175.94;;;20.03;100.00
56928;BME280;60850;52.502;13.426;2022-10-16T10:17:52;101171.84;;;20.26;100.00
56928;BME280;60850;52.502;13.426;2022-10-16T10:20:25;101165.41;;;20.43;100.00
56928;BME280;60850;52.502;13.426;2022-10-16T10:22:53;101177.72;;;20.48;100.00
56928;BME280;60850;52.502;13.426;2022-10-16T10:25:29;101166.94;;;20.63;100.00
56928;BME280;60850;52.502;13.426;2022-10-16T10:28:16;101175.63;;;20.53;100.00
56928;BME280;60850;52.502;13.426;2022-10-16T10:30:49;101177.47;;;20.53;100.00
56928;BME280;60850;52.502;13.426;2022-10-16T10:33:26;101174.34;;;20.45;100.00
56928;BME280;60850;52.502;13.426;2022-10-16T10:36:05;101188.03;;;20.42;100.00
56928;BME280;60850;52.502;13.426;2022-10-16T10:38:41;101192.34;;;20.46;100.00
56928;BME280;60850;52.502;13.426;2022-10-16T10:41:45;101196.44;;;20.53;100.00
56928;BME280;60850;52.502;13.426;2022-10-16T10:44:29;101196.06;;;20.59;100.00
56928;BME280;60850;52.502;13.426;2022-10-16T10:47:06;101181.72;;;20.57;100.00
56928;BME280;60850;52.502;13.426;2022-10-16T10:49:48;101192.97;;;20.65;100.00
56928;BME280;60850;52.502;13.426;2022-10-16T10:52:36;101185.78;;;20.64;100.00
56928;BME280;60850;52.502;13.426;2022-10-16T10:55:13;101195.19;;;20.43;100.00
56928;BME280;60850;52.502;13.426;2022-10-16T10:57:58;101192.22;;;20.17;100.00
56928;BME280;60850;52.502;13.426;2022-10-16T11:00:31;101195.91;;;20.00;100.00
56928;BME280;60850;52.502;13.426;2022-10-16T11:03:11;101198.25;;;20.07;100.00
56928;BME280;60850;52.502;13.426;2022-10-16T11:05:45;101195.09;;;20.14;100.00
56928;BME280;60850;52.502;13.426;2022-10-16T11:08:17;101194.00;;;20.33;100.00
56928;BME280;60850;52.502;13.426;2022-10-16T11:10:53;101200.81;;;20.70;100.00
56928;BME280;60850;52.502;13.426;2022-10-16T11:13:29;101201.69;;;20.84;100.00
56928;BME280;60850;52.502;13.426;2022-10-16T11:15:59;101198.59;;;20.91;100.00
56928;BME280;60850;52.502;13.426;2022-10-16T11:18:33;101203.25;;;20.89;100.00
56928;BME280;60850;52.502;13.426;2022-10-16T11:21:11;101195.72;;;20.79;100.00
56928;BME280;60850;52.502;13.426;2022-10-16T11:23:44;101202.75;;;20.82;100.00
56928;BME280;60850;52.502;13.426;2022-10-16T11:26:18;101196.38;;;20.83;100.00
56928;BME280;60850;52.502;13.426;2022-10-16T11:28:49;101198.22;;;20.82;100.00
56928;BME280;60850;52.502;13.426;2022-10-16T11:31:20;101197.16;;;20.85;100.00
56928;BME280;60850;52.502;13.426;2022-10-16T11:33:54;101199.56;;;20.90;100.00
56928;BME280;60850;52.502;13.426;2022-10-16T11:36:33;101190.34;;;20.78;100.00
56928;BME280;60850;52.502;13.426;2022-10-16T11:39:07;101198.88;;;20.72;100.00
56928;BME280;60850;52.502;13.426;2022-10-16T11:41:42;101197.91;;;20.59;100.00
56928;BME280;60850;52.502;13.426;2022-10-16T11:44:19;101185.97;;;20.47;100.00
56928;BME280;60850;52.502;13.426;2022-10-16T11:46:50;101194.31;;;20.42;100.00
56928;BME280;60850;52.502;13.426;2022-10-16T11:49:21;101200.75;;;20.25;100.00
56928;BME280;60850;52.502;13.426;2022-10-16T11:51:56;101197.47;;;20.05;100.00
56928;BME280;60850;52.502;13.426;2022-10-16T11:54:29;101197.09;;;19.81;100.00
56928;BME280;60850;52.502;13.426;2022-10-16T11:57:02;101196.19;;;19.64;100.00
56928;BME280;60850;52.502;13.426;2022-10-16T11:59:40;101201.06;;;19.42;100.00
56928;BME280;60850;52.502;13.426;2022-10-16T12:02:28;101194.13;;;19.20;100.00
56928;BME280;60850;52.502;13.426;2022-10-16T12:05:06;101211.66;;;19.13;100.00
56928;BME280;60850;52.502;13.426;2022-10-16T12:07:47;101214.13;;;19.01;100.00
56928;BME280;60850;52.502;13.426;2022-10-16T12:10:22;101216.28;;;18.94;100.00
56928;BME280;60850;52.502;13.426;2022-10-16T12:12:50;101225.59;;;18.88;100.00
56928;BME280;60850;52.502;13.426;2022-10-16T12:15:23;101224.59;;;18.91;100.00
56928;BME280;60850;52.502;13.426;2022-10-16T12:17:51;101225.03;;;18.99;100.00
56928;BME280;60850;52.502;13.426;2022-10-16T12:20:22;101223.84;;;19.05;100.00
56928;BME280;60850;52.502;13.426;2022-10-16T12:22:54;101229.78;;;19.11;100.00
56928;BME280;60850;52.502;13.426;2022-10-16T12:25:23;101228.06;;;19.10;100.00
56928;BME280;60850;52.502;13.426;2022-10-16T12:27:56;101222.28;;;19.16;100.00
56928;BME280;60850;52.502;13.426;2022-10-16T12:30:25;101228.06;;;19.10;100.00
56928;BME280;60850;52.502;13.426;2022-10-16T12:32:54;101233.94;;;19.01;100.00
56928;BME280;60850;52.502;13.426;2022-10-16T12:35:24;101227.97;;;18.94;100.00
56928;BME280;60850;52.502;13.426;2022-10-16T12:37:53;101236.03;;;18.96;100.00
56928;BME280;60850;52.502;13.426;2022-10-16T12:40:27;101234.66;;;19.05;100.00
56928;BME280;60850;52.502;13.426;2022-10-16T12:42:55;101243.63;;;19.05;100.00
56928;BME280;60850;52.502;13.426;2022-10-16T12:45:30;101241.72;;;19.07;100.00